createdAt,value
2022-10-19T00:01:32.583Z,99.90
2022-10-19T00:04:03.615Z,99.90
2022-10-19T00:06:35.868Z,99.90
2022-10-19T00:09:14.836Z,99.90
2022-10-19T00:11:45.518Z,99.90
2022-10-19T00:14:18.336Z,99.90
2022-10-19T00:16:46.834Z,99.90
2022-10-19T00:19:17.013Z,99.90
2022-10-19T00:21:43.984Z,99.90
2022-10-19T00:24:30.800Z,99.90
2022-10-19T00:26:57.787Z,99.90
2022-10-19T00:29:25.468Z,99.90
2022-10-19T00:31:52.472Z,99.90
2022-10-19T00:34:57.311Z,99.90
2022-10-19T00:37:24.172Z,99.90
2022-10-19T00:42:17.735Z,99.90
2022-10-19T00:44:48.829Z,99.90
2022-10-19T00:47:18.816Z,99.90
2022-10-19T00:49:46.806Z,99.90
2022-10-19T00:52:19.665Z,99.90
2022-10-19T00:54:48.399Z,99.90
2022-10-19T00:57:15.569Z,99.90
2022-10-19T00:59:44.399Z,99.90
2022-10-19T01:02:11.784Z,99.90
2022-10-19T01:04:42.311Z,99.90
2022-10-19T01:07:09.749Z,99.90
2022-10-19T01:09:36.589Z,99.90
2022-10-19T01:12:15.500Z,99.90
2022-10-19T01:15:05.930Z,99.90
2022-10-19T01:17:50.643Z,99.90
2022-10-19T01:20:41.334Z,99.90
2022-10-19T01:23:47.707Z,99.90
2022-10-19T01:26:36.739Z,99.90
2022-10-19T01:29:15.354Z,99.90
2022-10-19T01:32:04.194Z,99.90
2022-10-19T01:35:09.071Z,99.90
2022-10-19T01:38:00.567Z,99.90
2022-10-19T01:40:40.543Z,99.90
2022-10-19T01:43:39.951Z,99.90
2022-10-19T01:46:32.259Z,99.90
2022-10-19T01:49:08.874Z,99.90
2022-10-19T01:51:41.475Z,99.90
2022-10-19T01:54:15.477Z,99.90
2022-10-19T01:56:45.289Z,99.90
2022-10-19T01:59:14.055Z,99.90
2022-10-19T02:01:45.339Z,99.90
2022-10-19T02:04:50.043Z,99.90
2022-10-19T02:07:17.689Z,99.90
2022-10-19T02:09:44.521Z,99.90
2022-10-19T02:12:12.272Z,99.90
2022-10-19T02:15:18.827Z,99.90
2022-10-19T02:17:52.812Z,99.90
2022-10-19T02:20:20.215Z,99.90
2022-10-19T02:22:48.310Z,99.90
2022-10-19T02:25:15.725Z,99.90
2022-10-19T02:27:43.237Z,99.90
2022-10-19T02:30:12.989Z,99.90
2022-10-19T02:32:40.287Z,99.90
2022-10-19T02:35:07.749Z,99.90
2022-10-19T02:40:08.055Z,99.90
2022-10-19T02:42:44.007Z,99.90
2022-10-19T02:45:30.675Z,99.90
2022-10-19T02:48:02.214Z,99.90
2022-10-19T02:50:29.688Z,99.90
2022-10-19T02:53:00.319Z,99.90
2022-10-19T02:55:28.115Z,99.90
2022-10-19T02:57:54.928Z,99.90
2022-10-19T03:00:21.759Z,99.90
2022-10-19T03:03:26.555Z,99.90
2022-10-19T03:05:53.391Z,99.90
2022-10-19T03:08:20.249Z,99.90
2022-10-19T03:10:47.094Z,99.90
2022-10-19T03:13:14.066Z,99.90
2022-10-19T03:15:40.917Z,99.90
2022-10-19T03:18:07.732Z,99.90
2022-10-19T03:20:34.594Z,99.90
2022-10-19T03:23:01.712Z,99.90
2022-10-19T03:25:28.536Z,99.90
2022-10-19T03:27:55.356Z,99.90
2022-10-19T03:30:22.167Z,99.90
2022-10-19T03:32:50.323Z,99.90
2022-10-19T03:35:17.353Z,99.90
2022-10-19T03:37:44.223Z,99.90
2022-10-19T03:40:11.075Z,99.90
2022-10-19T03:42:37.941Z,99.90
2022-10-19T03:45:05.168Z,99.90
2022-10-19T03:47:32.344Z,99.90
2022-10-19T03:49:59.481Z,99.90
2022-10-19T03:52:26.308Z,99.90
2022-10-19T03:54:55.252Z,99.90
2022-10-19T03:57:22.108Z,99.90
2022-10-19T03:59:49.090Z,99.90
2022-10-19T04:02:15.940Z,99.90
2022-10-19T04:04:42.938Z,99.90
2022-10-19T04:07:09.757Z,99.90
2022-10-19T04:09:36.632Z,99.90
2022-10-19T04:12:03.675Z,99.90
2022-10-19T04:14:33.313Z,99.90
2022-10-19T04:17:05.962Z,99.90
2022-10-19T04:19:32.769Z,99.90
2022-10-19T04:21:59.774Z,99.90
2022-10-19T04:24:28.681Z,99.90
2022-10-19T04:26:56.359Z,99.90
2022-10-19T04:29:27.998Z,99.90
2022-10-19T04:31:56.980Z,99.90
2022-10-19T04:34:25.194Z,99.90
2022-10-19T04:36:53.705Z,99.90
2022-10-19T04:39:20.542Z,99.90
2022-10-19T04:41:47.395Z,99.90
2022-10-19T04:44:18.322Z,99.90
2022-10-19T04:46:45.210Z,99.90
2022-10-19T04:49:15.142Z,99.90
2022-10-19T04:51:44.733Z,99.90
2022-10-19T04:54:12.704Z,99.90
2022-10-19T04:56:39.957Z,99.90
2022-10-19T04:59:06.780Z,99.90
2022-10-19T05:01:33.610Z,99.90
2022-10-19T05:04:02.993Z,99.90
2022-10-19T05:06:31.354Z,99.90
2022-10-19T05:08:59.018Z,99.90
2022-10-19T05:11:26.203Z,99.90
2022-10-19T05:13:53.304Z,99.90
2022-10-19T05:16:22.139Z,99.90
2022-10-19T05:18:50.846Z,99.90
2022-10-19T05:21:18.635Z,99.90
2022-10-19T05:23:46.711Z,99.90
2022-10-19T05:26:17.346Z,99.90
2022-10-19T05:28:48.937Z,99.90
2022-10-19T05:31:18.279Z,99.90
2022-10-19T05:33:46.180Z,99.90
2022-10-19T05:36:27.571Z,99.90
2022-10-19T05:38:58.190Z,99.90
2022-10-19T05:41:26.011Z,99.90
2022-10-19T05:43:57.089Z,99.90
2022-10-19T05:46:25.388Z,99.90
2022-10-19T05:48:52.580Z,99.90
2022-10-19T05:51:20.892Z,99.90
2022-10-19T05:53:48.028Z,99.90
2022-10-19T05:56:18.999Z,99.90
2022-10-19T05:58:46.608Z,99.90
2022-10-19T06:01:14.452Z,99.90
2022-10-19T06:03:42.428Z,99.90
2022-10-19T06:06:10.057Z,99.90
2022-10-19T06:08:38.136Z,99.90
2022-10-19T06:11:16.370Z,99.90
2022-10-19T06:14:20.922Z,99.90
2022-10-19T06:16:47.835Z,99.90
2022-10-19T06:19:14.778Z,99.90
2022-10-19T06:21:43.421Z,99.90
2022-10-19T06:24:16.880Z,99.90
2022-10-19T06:26:43.746Z,99.90
2022-10-19T06:29:10.803Z,99.90
2022-10-19T06:31:38.438Z,99.90
2022-10-19T06:34:05.687Z,99.90
2022-10-19T06:36:33.565Z,99.90
2022-10-19T06:39:01.717Z,99.90
2022-10-19T06:41:30.464Z,99.90
2022-10-19T06:44:04.151Z,99.90
2022-10-19T06:46:32.556Z,99.90
2022-10-19T06:49:01.596Z,99.90
2022-10-19T06:51:30.427Z,99.90
2022-10-19T06:53:58.559Z,99.90
2022-10-19T06:56:26.729Z,99.90
2022-10-19T06:58:54.522Z,99.90
2022-10-19T07:01:21.770Z,99.90
2022-10-19T07:03:51.146Z,99.90
2022-10-19T07:06:18.087Z,99.90
2022-10-19T07:08:45.043Z,99.90
2022-10-19T07:11:17.872Z,99.90
2022-10-19T07:14:24.791Z,99.90
2022-10-19T07:16:52.518Z,99.90
2022-10-19T07:19:19.349Z,99.90
2022-10-19T07:21:46.375Z,99.90
2022-10-19T07:24:13.479Z,99.90
2022-10-19T07:26:40.484Z,99.90
2022-10-19T07:29:07.362Z,99.90
2022-10-19T07:31:34.618Z,99.90
2022-10-19T07:34:40.352Z,99.90
2022-10-19T07:37:07.213Z,99.90
2022-10-19T07:39:34.025Z,99.90
2022-10-19T07:42:00.855Z,99.90
2022-10-19T07:44:28.035Z,99.90
2022-10-19T07:46:54.828Z,99.90
2022-10-19T07:49:22.415Z,99.90
2022-10-19T07:51:53.793Z,99.90
2022-10-19T07:54:22.576Z,99.90
2022-10-19T07:56:49.409Z,99.90
2022-10-19T07:59:17.391Z,99.90
2022-10-19T08:01:45.199Z,99.90
2022-10-19T08:04:49.044Z,99.90
2022-10-19T08:07:00.225Z,99.90
2022-10-19T08:09:51.594Z,99.90
2022-10-19T08:12:15.425Z,99.90
2022-10-19T08:14:44.761Z,99.90
2022-10-19T08:17:12.010Z,99.90
2022-10-19T08:19:43.339Z,99.90
2022-10-19T08:22:10.915Z,99.90
2022-10-19T08:24:39.022Z,99.90
2022-10-19T08:27:06.016Z,99.90
2022-10-19T08:29:32.796Z,99.90
2022-10-19T08:32:00.107Z,99.90
2022-10-19T08:34:28.187Z,99.90
2022-10-19T08:36:55.071Z,99.90
2022-10-19T08:39:21.936Z,99.90
2022-10-19T08:41:54.933Z,99.90
2022-10-19T08:44:31.215Z,99.90
2022-10-19T08:47:33.337Z,99.90
2022-10-19T08:50:00.454Z,99.90
2022-10-19T08:52:34.819Z,99.90
2022-10-19T08:55:26.914Z,99.90
2022-10-19T08:58:35.731Z,99.90
2022-10-19T09:01:37.805Z,99.90
2022-10-19T09:04:05.003Z,99.90
2022-10-19T09:06:44.963Z,99.90
2022-10-19T09:09:13.739Z,99.90
2022-10-19T09:11:46.247Z,99.90
2022-10-19T09:14:25.706Z,99.90
2022-10-19T09:16:54.542Z,99.90
2022-10-19T09:19:30.036Z,99.90
2022-10-19T09:22:00.379Z,99.90
2022-10-19T09:25:06.248Z,99.90
2022-10-19T09:27:38.733Z,99.90
2022-10-19T09:30:21.684Z,99.90
2022-10-19T09:33:00.358Z,99.90
2022-10-19T09:35:32.782Z,99.90
2022-10-19T09:38:00.416Z,99.90
2022-10-19T09:40:29.748Z,99.90
2022-10-19T09:42:59.381Z,99.90
2022-10-19T09:45:32.220Z,99.90
2022-10-19T09:48:08.649Z,99.90
2022-10-19T09:50:35.745Z,99.90
2022-10-19T09:53:40.326Z,99.90
2022-10-19T09:56:08.856Z,99.90
2022-10-19T09:58:35.868Z,99.90
2022-10-19T10:01:03.569Z,99.50
2022-10-19T10:03:36.128Z,98.40
2022-10-19T10:06:05.336Z,97.30
2022-10-19T10:08:36.531Z,96.00
2022-10-19T10:11:08.151Z,95.30
2022-10-19T10:13:39.369Z,94.20
2022-10-19T10:16:09.480Z,93.90
2022-10-19T10:18:43.397Z,92.10
2022-10-19T10:21:13.202Z,91.80
2022-10-19T10:23:40.443Z,91.70
2022-10-19T10:26:18.931Z,90.80
2022-10-19T10:28:51.305Z,90.70
2022-10-19T10:31:28.820Z,90.20
2022-10-19T10:34:12.305Z,90.40
2022-10-19T10:36:53.738Z,90.20
2022-10-19T10:39:20.805Z,88.00
2022-10-19T10:41:49.084Z,87.30
2022-10-19T10:44:26.543Z,85.90
2022-10-19T10:47:01.651Z,87.70
2022-10-19T10:49:42.458Z,88.70
2022-10-19T10:52:17.961Z,89.70
2022-10-19T10:55:06.655Z,90.00
2022-10-19T10:57:45.298Z,90.00
2022-10-19T11:00:16.333Z,90.40
2022-10-19T11:02:55.571Z,90.80
2022-10-19T11:05:29.844Z,91.40
2022-10-19T11:08:25.066Z,91.90
2022-10-19T11:10:59.173Z,92.20
2022-10-19T11:13:44.875Z,91.90
2022-10-19T11:16:14.917Z,92.00
2022-10-19T11:18:49.151Z,91.50
2022-10-19T11:21:19.991Z,91.80
2022-10-19T11:23:57.163Z,91.80
2022-10-19T11:26:34.745Z,91.00
2022-10-19T11:29:30.684Z,90.40
2022-10-19T11:31:58.263Z,88.50
2022-10-19T11:35:04.670Z,86.00
2022-10-19T11:37:49.917Z,83.20
2022-10-19T11:40:54.267Z,79.80
2022-10-19T11:43:40.919Z,78.70
2022-10-19T11:46:13.642Z,78.80
2022-10-19T11:49:04.618Z,79.20
2022-10-19T11:51:51.978Z,78.90
2022-10-19T11:54:44.574Z,80.50
2022-10-19T11:57:28.163Z,81.80
2022-10-19T12:00:14.955Z,81.40
2022-10-19T12:03:04.127Z,80.70
2022-10-19T12:05:42.969Z,81.20
2022-10-19T12:08:29.178Z,82.70
2022-10-19T12:11:18.770Z,82.60
2022-10-19T12:14:26.112Z,82.50
2022-10-19T12:17:00.219Z,83.20
2022-10-19T12:19:32.675Z,85.00
2022-10-19T12:22:02.782Z,86.50
2022-10-19T12:24:33.661Z,87.90
2022-10-19T12:27:01.905Z,89.00
2022-10-19T12:29:34.080Z,90.00
2022-10-19T12:32:03.096Z,90.00
2022-10-19T12:34:37.239Z,86.30
2022-10-19T12:37:28.210Z,80.80
2022-10-19T12:40:02.979Z,79.90
2022-10-19T12:42:51.460Z,75.60
2022-10-19T12:45:42.918Z,72.40
2022-10-19T12:48:12.508Z,72.20
2022-10-19T12:50:48.385Z,70.50
2022-10-19T12:53:44.652Z,71.60
2022-10-19T12:56:17.891Z,74.10
2022-10-19T12:58:46.788Z,75.50
2022-10-19T13:01:23.724Z,77.50
2022-10-19T13:04:21.387Z,80.00
2022-10-19T13:06:51.403Z,81.90
2022-10-19T13:09:31.946Z,83.60
2022-10-19T13:12:21.499Z,84.70
2022-10-19T13:14:49.498Z,86.20
2022-10-19T13:17:35.064Z,87.90
2022-10-19T13:20:13.959Z,88.80
2022-10-19T13:23:13.414Z,89.60
2022-10-19T13:25:41.457Z,90.20
2022-10-19T13:28:11.095Z,90.40
2022-10-19T13:30:46.810Z,90.70
2022-10-19T13:33:26.025Z,91.10
2022-10-19T13:36:13.373Z,91.40
2022-10-19T13:38:59.412Z,91.40
2022-10-19T13:41:38.391Z,91.80
2022-10-19T13:44:28.913Z,92.00
2022-10-19T13:47:29.486Z,92.30
2022-10-19T13:50:15.310Z,92.60
2022-10-19T13:53:06.630Z,92.90
2022-10-19T13:55:54.875Z,93.30
2022-10-19T13:58:43.175Z,93.80
2022-10-19T14:01:40.891Z,94.00
2022-10-19T14:04:07.851Z,94.20
2022-10-19T14:06:47.361Z,93.40
2022-10-19T14:09:42.088Z,92.80
2022-10-19T14:12:21.166Z,92.50
2022-10-19T14:14:48.390Z,92.60
2022-10-19T14:17:27.874Z,92.80
2022-10-19T14:19:57.763Z,93.00
2022-10-19T14:22:36.301Z,93.00
2022-10-19T14:25:26.993Z,93.70
2022-10-19T14:28:21.336Z,93.40
2022-10-19T14:30:55.789Z,92.50
2022-10-19T14:33:46.167Z,92.50
2022-10-19T14:36:24.804Z,92.50
2022-10-19T14:38:55.604Z,93.10
2022-10-19T14:41:28.354Z,93.10
2022-10-19T14:43:57.185Z,93.60
2022-10-19T14:46:32.001Z,94.10
2022-10-19T14:49:04.808Z,94.00
2022-10-19T14:51:47.198Z,93.80
2022-10-19T14:54:25.079Z,93.80
2022-10-19T14:57:01.071Z,94.20
2022-10-19T14:59:31.078Z,94.70
2022-10-19T15:02:02.552Z,95.10
2022-10-19T15:04:36.773Z,95.50
2022-10-19T15:07:16.144Z,95.90
2022-10-19T15:09:50.164Z,96.10
2022-10-19T15:12:20.027Z,96.20
2022-10-19T15:14:48.004Z,96.10
2022-10-19T15:17:52.280Z,96.20
2022-10-19T15:20:26.372Z,95.80
2022-10-19T15:22:53.811Z,95.40
2022-10-19T15:25:36.883Z,95.70
2022-10-19T15:28:36.030Z,96.20
2022-10-19T15:31:16.900Z,96.40
2022-10-19T15:33:56.046Z,96.80
2022-10-19T15:36:24.390Z,97.10
2022-10-19T15:39:17.452Z,97.20
2022-10-19T15:41:49.151Z,96.90
2022-10-19T15:44:50.735Z,97.10
2022-10-19T15:47:20.305Z,97.30
2022-10-19T15:49:56.287Z,97.50
2022-10-19T15:52:25.106Z,97.70
2022-10-19T15:54:55.990Z,98.10
2022-10-19T15:57:37.846Z,98.40
2022-10-19T16:00:14.502Z,98.80
2022-10-19T16:02:41.650Z,99.20
2022-10-19T16:05:08.951Z,99.80
2022-10-19T16:07:39.101Z,99.90
2022-10-19T16:10:07.016Z,99.90
2022-10-19T16:12:33.872Z,99.90
2022-10-19T16:15:00.890Z,99.90
2022-10-19T16:17:27.766Z,99.90
2022-10-19T16:19:54.599Z,99.90
2022-10-19T16:22:21.479Z,99.90
2022-10-19T16:24:48.638Z,99.90
2022-10-19T16:27:16.394Z,99.90
2022-10-19T16:29:44.371Z,99.90
2022-10-19T16:32:11.669Z,99.90
2022-10-19T16:34:41.373Z,99.90
2022-10-19T16:37:08.257Z,99.90
2022-10-19T16:39:38.230Z,99.90
2022-10-19T16:42:05.190Z,99.90
2022-10-19T16:44:33.156Z,99.90
2022-10-19T16:47:00.072Z,99.90
2022-10-19T16:49:27.142Z,99.90
2022-10-19T16:51:57.191Z,99.90
2022-10-19T16:54:26.804Z,99.90
2022-10-19T16:56:55.754Z,99.90
2022-10-19T16:59:22.784Z,99.90
2022-10-19T17:01:49.873Z,99.90
2022-10-19T17:04:19.901Z,99.90
2022-10-19T17:06:46.994Z,99.90
2022-10-19T17:12:01.307Z,99.90
2022-10-19T17:14:30.410Z,99.90
2022-10-19T17:16:57.216Z,99.90
2022-10-19T17:19:24.263Z,99.90
2022-10-19T17:21:51.344Z,99.90
2022-10-19T17:24:22.133Z,99.90
2022-10-19T17:26:51.536Z,99.90
2022-10-19T17:29:19.892Z,99.90
2022-10-19T17:31:47.751Z,99.90
2022-10-19T17:34:16.360Z,99.90
2022-10-19T17:36:44.947Z,99.90
2022-10-19T17:39:17.930Z,99.90
2022-10-19T17:41:50.535Z,99.90
2022-10-19T17:44:20.458Z,99.90
2022-10-19T17:46:48.051Z,99.90
2022-10-19T17:49:15.321Z,99.90
2022-10-19T17:51:42.539Z,99.90
2022-10-19T17:54:12.215Z,99.90
2022-10-19T17:56:40.191Z,99.90
2022-10-19T17:59:08.969Z,99.90
2022-10-19T18:01:37.205Z,99.90
2022-10-19T18:04:06.535Z,99.90
2022-10-19T18:06:36.191Z,99.90
2022-10-19T18:09:06.220Z,99.90
2022-10-19T18:11:39.957Z,99.90
2022-10-19T18:14:11.105Z,99.90
2022-10-19T18:16:44.794Z,99.90
2022-10-19T18:19:13.702Z,99.90
2022-10-19T18:21:42.690Z,99.90
2022-10-19T18:24:15.337Z,99.90
2022-10-19T18:26:42.675Z,99.90
2022-10-19T18:29:16.507Z,99.90
2022-10-19T18:31:44.692Z,99.90
2022-10-19T18:34:15.813Z,99.90
2022-10-19T18:36:43.403Z,99.90
2022-10-19T18:39:12.147Z,99.90
2022-10-19T18:41:40.508Z,99.90
2022-10-19T18:44:12.858Z,99.90
2022-10-19T18:46:40.674Z,99.90
2022-10-19T18:49:08.479Z,99.90
2022-10-19T18:51:36.023Z,99.90
2022-10-19T18:54:05.093Z,99.90
2022-10-19T18:56:33.436Z,99.90
2022-10-19T18:59:01.059Z,99.90
2022-10-19T19:01:29.738Z,99.90
2022-10-19T19:04:00.627Z,99.90
2022-10-19T19:06:29.695Z,99.90
2022-10-19T19:08:57.936Z,99.90
2022-10-19T19:11:35.904Z,99.90
2022-10-19T19:14:07.835Z,99.90
2022-10-19T19:16:37.471Z,99.90
2022-10-19T19:19:05.676Z,99.90
2022-10-19T19:21:33.286Z,99.90
2022-10-19T19:24:21.892Z,99.90
2022-10-19T19:26:52.723Z,99.90
2022-10-19T19:29:20.580Z,99.90
2022-10-19T19:31:48.226Z,99.90
2022-10-19T19:34:54.917Z,99.90
2022-10-19T19:37:22.202Z,99.90
2022-10-19T19:39:49.071Z,99.90
2022-10-19T19:42:16.373Z,99.90
2022-10-19T19:45:21.078Z,99.90
2022-10-19T19:47:47.927Z,99.90
2022-10-19T19:50:14.816Z,99.90
2022-10-19T19:52:42.211Z,99.90
2022-10-19T19:55:09.741Z,99.90
2022-10-19T19:57:37.167Z,99.90
2022-10-19T20:00:06.048Z,99.90
2022-10-19T20:02:39.311Z,99.90
2022-10-19T20:05:06.291Z,99.90
2022-10-19T20:07:33.357Z,99.90
2022-10-19T20:10:00.528Z,99.90
2022-10-19T20:12:27.318Z,99.90
2022-10-19T20:14:54.600Z,99.90
2022-10-19T20:17:23.794Z,99.90
2022-10-19T20:19:50.583Z,99.90
2022-10-19T20:22:17.506Z,99.90
2022-10-19T20:24:44.538Z,99.90
2022-10-19T20:27:11.439Z,99.90
2022-10-19T20:29:38.652Z,99.90
2022-10-19T20:32:05.557Z,99.90
2022-10-19T20:34:35.997Z,99.90
2022-10-19T20:37:02.879Z,99.90
2022-10-19T20:39:29.851Z,99.90
2022-10-19T20:41:56.802Z,99.90
2022-10-19T20:44:23.840Z,99.90
2022-10-19T20:46:50.688Z,99.90
2022-10-19T20:49:17.476Z,99.90
2022-10-19T20:51:44.327Z,99.90
2022-10-19T20:54:12.319Z,99.90
2022-10-19T20:56:41.067Z,99.90
2022-10-19T20:59:12.636Z,99.90
2022-10-19T21:01:41.288Z,99.90
2022-10-19T21:04:13.297Z,99.90
2022-10-19T21:06:43.480Z,99.90
2022-10-19T21:09:11.587Z,99.90
2022-10-19T21:11:40.680Z,99.90
2022-10-19T21:14:15.515Z,99.90
2022-10-19T21:16:42.884Z,99.90
2022-10-19T21:19:35.906Z,99.90
2022-10-19T21:22:03.067Z,99.90
2022-10-19T21:24:35.528Z,99.90
2022-10-19T21:27:05.086Z,99.90
2022-10-19T21:29:32.361Z,99.90
2022-10-19T21:31:59.299Z,99.90
2022-10-19T21:34:28.620Z,99.90
2022-10-19T21:36:56.088Z,99.90
2022-10-19T21:39:22.956Z,99.90
2022-10-19T21:41:49.903Z,99.90
2022-10-19T21:44:19.259Z,99.90
2022-10-19T21:46:49.520Z,99.90
2022-10-19T21:49:17.117Z,99.90
2022-10-19T21:51:52.127Z,99.90
2022-10-19T21:54:24.652Z,99.90
2022-10-19T21:56:51.901Z,99.90
2022-10-19T21:59:18.796Z,99.90
2022-10-19T22:01:45.674Z,99.90
2022-10-19T22:04:16.091Z,99.90
2022-10-19T22:06:43.213Z,99.90
2022-10-19T22:09:13.939Z,99.90
2022-10-19T22:11:41.027Z,99.90
2022-10-19T22:14:08.176Z,99.90
2022-10-19T22:16:36.749Z,99.90
2022-10-19T22:19:05.253Z,99.90
2022-10-19T22:21:34.289Z,99.90
2022-10-19T22:24:04.073Z,99.90
2022-10-19T22:26:33.739Z,99.90
2022-10-19T22:29:01.574Z,99.90
2022-10-19T22:31:29.868Z,99.90
2022-10-19T22:34:00.100Z,99.90
2022-10-19T22:36:26.968Z,99.90
2022-10-19T22:38:55.026Z,99.90
2022-10-19T22:41:21.906Z,99.90
2022-10-19T22:43:49.818Z,99.90
2022-10-19T22:46:16.731Z,99.90
2022-10-19T22:48:43.648Z,99.90
2022-10-19T22:51:10.608Z,99.90
2022-10-19T22:53:41.551Z,99.90
2022-10-19T22:56:11.810Z,99.90
2022-10-19T22:58:39.576Z,99.90
2022-10-19T23:01:11.848Z,99.90
2022-10-19T23:03:40.449Z,99.90
2022-10-19T23:06:13.028Z,99.90
2022-10-19T23:08:40.054Z,99.90
2022-10-19T23:11:07.607Z,99.90
2022-10-19T23:13:34.885Z,99.90
2022-10-19T23:16:01.727Z,99.90
2022-10-19T23:18:36.055Z,99.90
2022-10-19T23:21:06.387Z,99.90
2022-10-19T23:23:36.928Z,99.90
2022-10-19T23:26:12.470Z,99.90
2022-10-19T23:28:41.612Z,99.90
2022-10-19T23:31:24.424Z,99.90
2022-10-19T23:33:52.971Z,99.90
2022-10-19T23:36:25.784Z,99.90
2022-10-19T23:38:54.079Z,99.90
2022-10-19T23:41:22.055Z,99.90
2022-10-19T23:43:50.213Z,99.90
2022-10-19T23:46:17.197Z,99.90
2022-10-19T23:48:44.186Z,99.90
2022-10-19T23:51:16.328Z,99.90
2022-10-19T23:54:40.040Z,99.90
2022-10-19T23:57:06.849Z,99.90
2022-10-19T23:59:33.695Z,99.90
